sensor_id;sensor_type;location;lat;lon;timestamp;temperature;humidity
68177;DHT22;56478;50.982;7.032;2023-07-22T00:00:32;15.53;67.09
68177;DHT22;56478;50.982;7.032;2023-07-22T00:02:58;15.48;67.29
68177;DHT22;56478;50.982;7.032;2023-07-22T00:05:26;15.44;67.50
68177;DHT22;56478;50.982;7.032;2023-07-22T00:07:54;15.43;67.66
68177;DHT22;56478;50.982;7.032;2023-07-22T00:10:19;15.34;67.96
68177;DHT22;56478;50.982;7.032;2023-07-22T00:12:50;15.23;68.19
68177;DHT22;56478;50.982;7.032;2023-07-22T00:15:16;15.22;68.47
68177;DHT22;56478;50.982;7.032;2023-07-22T00:17:50;15.20;68.69
68177;DHT22;56478;50.982;7.032;2023-07-22T00:20:20;15.16;68.56
68177;DHT22;56478;50.982;7.032;2023-07-22T00:22:46;15.16;68.86
68177;DHT22;56478;50.982;7.032;2023-07-22T00:25:21;15.18;68.88
68177;DHT22;56478;50.982;7.032;2023-07-22T00:27:55;15.13;68.91
68177;DHT22;56478;50.982;7.032;2023-07-22T00:30:37;15.07;69.07
68177;DHT22;56478;50.982;7.032;2023-07-22T00:33:05;15.03;69.30
68177;DHT22;56478;50.982;7.032;2023-07-22T00:35:41;15.05;69.36
68177;DHT22;56478;50.982;7.032;2023-07-22T00:38:19;14.95;69.71
68177;DHT22;56478;50.982;7.032;2023-07-22T00:40:52;14.95;69.58
68177;DHT22;56478;50.982;7.032;2023-07-22T00:43:25;14.89;70.18
68177;DHT22;56478;50.982;7.032;2023-07-22T00:45:57;14.88;70.21
68177;DHT22;56478;50.982;7.032;2023-07-22T00:48:31;14.84;70.69
68177;DHT22;56478;50.982;7.032;2023-07-22T00:50:57;14.81;70.15
68177;DHT22;56478;50.982;7.032;2023-07-22T00:53:23;14.79;70.35
68177;DHT22;56478;50.982;7.032;2023-07-22T00:55:48;14.72;70.50
68177;DHT22;56478;50.982;7.032;2023-07-22T00:58:17;14.71;70.50
68177;DHT22;56478;50.982;7.032;2023-07-22T01:00:46;14.68;70.69
68177;DHT22;56478;50.982;7.032;2023-07-22T01:03:14;14.60;71.08
68177;DHT22;56478;50.982;7.032;2023-07-22T01:05:42;14.60;70.83
68177;DHT22;56478;50.982;7.032;2023-07-22T01:08:08;14.52;71.17
68177;DHT22;56478;50.982;7.032;2023-07-22T01:10:34;14.54;70.99
68177;DHT22;56478;50.982;7.032;2023-07-22T01:13:04;14.54;71.41
68177;DHT22;56478;50.982;7.032;2023-07-22T01:15:29;14.56;71.66
68177;DHT22;56478;50.982;7.032;2023-07-22T01:17:55;14.57;71.49
68177;DHT22;56478;50.982;7.032;2023-07-22T01:20:22;14.58;71.43
68177;DHT22;56478;50.982;7.032;2023-07-22T01:22:52;14.58;70.89
68177;DHT22;56478;50.982;7.032;2023-07-22T01:25:19;14.58;71.50
68177;DHT22;56478;50.982;7.032;2023-07-22T01:27:46;14.65;71.24
68177;DHT22;56478;50.982;7.032;2023-07-22T01:30:12;14.72;70.91
68177;DHT22;56478;50.982;7.032;2023-07-22T01:32:42;14.69;70.96
68177;DHT22;56478;50.982;7.032;2023-07-22T01:35:08;14.71;70.81
68177;DHT22;56478;50.982;7.032;2023-07-22T01:37:34;14.63;71.39
68177;DHT22;56478;50.982;7.032;2023-07-22T01:40:00;14.57;71.29
68177;DHT22;56478;50.982;7.032;2023-07-22T01:42:36;14.47;71.48
68177;DHT22;56478;50.982;7.032;2023-07-22T01:45:02;14.47;71.80
68177;DHT22;56478;50.982;7.032;2023-07-22T01:47:29;14.40;72.34
68177;DHT22;56478;50.982;7.032;2023-07-22T01:49:57;14.41;72.15
68177;DHT22;56478;50.982;7.032;2023-07-22T01:52:23;14.40;72.36
68177;DHT22;56478;50.982;7.032;2023-07-22T01:54:48;14.40;72.50
68177;DHT22;56478;50.982;7.032;2023-07-22T01:57:14;14.50;72.32
68177;DHT22;56478;50.982;7.032;2023-07-22T01:59:39;14.56;72.09
68177;DHT22;56478;50.982;7.032;2023-07-22T02:02:05;14.63;71.91
68177;DHT22;56478;50.982;7.032;2023-07-22T02:04:30;14.51;72.09
68177;DHT22;56478;50.982;7.032;2023-07-22T02:06:56;14.48;72.36
68177;DHT22;56478;50.982;7.032;2023-07-22T02:09:22;14.45;72.53
68177;DHT22;56478;50.982;7.032;2023-07-22T02:11:50;14.50;72.89
68177;DHT22;56478;50.982;7.032;2023-07-22T02:14:15;14.56;72.57
68177;DHT22;56478;50.982;7.032;2023-07-22T02:16:41;14.61;72.76
68177;DHT22;56478;50.982;7.032;2023-07-22T02:19:11;14.61;72.60
68177;DHT22;56478;50.982;7.032;2023-07-22T02:21:37;14.65;72.66
68177;DHT22;56478;50.982;7.032;2023-07-22T02:24:02;14.69;72.40
68177;DHT22;56478;50.982;7.032;2023-07-22T02:26:36;14.71;72.69
68177;DHT22;56478;50.982;7.032;2023-07-22T02:29:02;14.68;72.41
68177;DHT22;56478;50.982;7.032;2023-07-22T02:31:27;14.67;73.04
68177;DHT22;56478;50.982;7.032;2023-07-22T02:33:53;14.60;72.57
68177;DHT22;56478;50.982;7.032;2023-07-22T02:36:28;14.60;73.22
68177;DHT22;56478;50.982;7.032;2023-07-22T02:38:56;14.57;73.01
68177;DHT22;56478;50.982;7.032;2023-07-22T02:41:22;14.51;73.31
68177;DHT22;56478;50.982;7.032;2023-07-22T02:43:50;14.50;73.64
68177;DHT22;56478;50.982;7.032;2023-07-22T02:46:18;14.44;73.77
68177;DHT22;56478;50.982;7.032;2023-07-22T02:48:57;14.38;73.79
68177;DHT22;56478;50.982;7.032;2023-07-22T02:51:25;14.36;74.17
68177;DHT22;56478;50.982;7.032;2023-07-22T02:54:04;14.33;74.45
68177;DHT22;56478;50.982;7.032;2023-07-22T02:56:35;14.40;74.35
68177;DHT22;56478;50.982;7.032;2023-07-22T02:59:10;14.41;74.42
68177;DHT22;56478;50.982;7.032;2023-07-22T03:01:45;14.43;74.48
68177;DHT22;56478;50.982;7.032;2023-07-22T03:04:11;14.48;74.80
68177;DHT22;56478;50.982;7.032;2023-07-22T03:06:37;14.56;74.65
68177;DHT22;56478;50.982;7.032;2023-07-22T03:09:06;14.58;74.37
68177;DHT22;56478;50.982;7.032;2023-07-22T03:11:32;14.47;74.87
68177;DHT22;56478;50.982;7.032;2023-07-22T03:14:02;14.50;75.30
68177;DHT22;56478;50.982;7.032;2023-07-22T03:16:27;14.51;75.16
68177;DHT22;56478;50.982;7.032;2023-07-22T03:18:56;14.51;75.14
68177;DHT22;56478;50.982;7.032;2023-07-22T03:21:21;14.51;75.24
68177;DHT22;56478;50.982;7.032;2023-07-22T03:24:12;14.50;75.34
68177;DHT22;56478;50.982;7.032;2023-07-22T03:26:41;14.45;75.68
68177;DHT22;56478;50.982;7.032;2023-07-22T03:29:09;14.45;75.85
68177;DHT22;56478;50.982;7.032;2023-07-22T03:31:34;14.40;75.73
68177;DHT22;56478;50.982;7.032;2023-07-22T03:34:00;14.30;76.17
68177;DHT22;56478;50.982;7.032;2023-07-22T03:36:28;14.27;76.56
68177;DHT22;56478;50.982;7.032;2023-07-22T03:38:59;14.34;76.52
68177;DHT22;56478;50.982;7.032;2023-07-22T03:41:27;14.44;76.30
68177;DHT22;56478;50.982;7.032;2023-07-22T03:43:55;14.44;76.31
68177;DHT22;56478;50.982;7.032;2023-07-22T03:46:23;14.47;76.04
68177;DHT22;56478;50.982;7.032;2023-07-22T03:48:50;14.43;76.13
68177;DHT22;56478;50.982;7.032;2023-07-22T03:51:19;14.48;76.03
68177;DHT22;56478;50.982;7.032;2023-07-22T03:53:44;14.54;76.15
68177;DHT22;56478;50.982;7.032;2023-07-22T03:56:10;14.50;75.86
68177;DHT22;56478;50.982;7.032;2023-07-22T03:58:36;14.54;75.89
68177;DHT22;56478;50.982;7.032;2023-07-22T04:01:03;14.60;75.75
68177;DHT22;56478;50.982;7.032;2023-07-22T04:03:29;14.68;75.41
68177;DHT22;56478;50.982;7.032;2023-07-22T04:06:10;14.64;75.49
68177;DHT22;56478;50.982;7.032;2023-07-22T04:08:36;14.56;75.80
68177;DHT22;56478;50.982;7.032;2023-07-22T04:11:02;14.64;75.60
68177;DHT22;56478;50.982;7.032;2023-07-22T04:13:27;14.65;75.59
68177;DHT22;56478;50.982;7.032;2023-07-22T04:15:53;14.65;75.28
68177;DHT22;56478;50.982;7.032;2023-07-22T04:18:20;14.69;75.45
68177;DHT22;56478;50.982;7.032;2023-07-22T04:20:46;14.72;75.07
68177;DHT22;56478;50.982;7.032;2023-07-22T04:23:22;14.71;75.06
68177;DHT22;56478;50.982;7.032;2023-07-22T04:25:47;14.69;75.33
68177;DHT22;56478;50.982;7.032;2023-07-22T04:28:13;14.72;75.26
68177;DHT22;56478;50.982;7.032;2023-07-22T04:30:39;14.75;75.01
68177;DHT22;56478;50.982;7.032;2023-07-22T04:33:05;14.78;74.72
68177;DHT22;56478;50.982;7.032;2023-07-22T04:35:36;14.79;74.70
68177;DHT22;56478;50.982;7.032;2023-07-22T04:38:02;14.72;74.50
68177;DHT22;56478;50.982;7.032;2023-07-22T04:40:42;14.57;74.98
68177;DHT22;56478;50.982;7.032;2023-07-22T04:43:08;14.52;75.25
68177;DHT22;56478;50.982;7.032;2023-07-22T04:45:49;14.64;75.41
68177;DHT22;56478;50.982;7.032;2023-07-22T04:48:19;14.69;74.72
68177;DHT22;56478;50.982;7.032;2023-07-22T04:50:45;14.77;74.32
68177;DHT22;56478;50.982;7.032;2023-07-22T04:53:12;14.74;74.29
68177;DHT22;56478;50.982;7.032;2023-07-22T04:55:40;14.71;74.35
68177;DHT22;56478;50.982;7.032;2023-07-22T04:58:21;14.74;74.69
68177;DHT22;56478;50.982;7.032;2023-07-22T05:00:49;14.75;74.55
68177;DHT22;56478;50.982;7.032;2023-07-22T05:03:14;14.81;74.36
68177;DHT22;56478;50.982;7.032;2023-07-22T05:05:43;14.92;73.85
68177;DHT22;56478;50.982;7.032;2023-07-22T05:08:15;14.96;73.58
68177;DHT22;56478;50.982;7.032;2023-07-22T05:10:44;14.99;73.48
68177;DHT22;56478;50.982;7.032;2023-07-22T05:13:19;14.96;73.04
68177;DHT22;56478;50.982;7.032;2023-07-22T05:15:45;14.93;72.92
68177;DHT22;56478;50.982;7.032;2023-07-22T05:18:13;14.88;73.12
68177;DHT22;56478;50.982;7.032;2023-07-22T05:20:43;14.99;73.03
68177;DHT22;56478;50.982;7.032;2023-07-22T05:23:31;14.95;73.06
68177;DHT22;56478;50.982;7.032;2023-07-22T05:25:59;14.99;72.83
68177;DHT22;56478;50.982;7.032;2023-07-22T05:28:32;15.03;73.10
68177;DHT22;56478;50.982;7.032;2023-07-22T05:31:09;15.20;72.07
68177;DHT22;56478;50.982;7.032;2023-07-22T05:33:41;15.27;71.98
68177;DHT22;56478;50.982;7.032;2023-07-22T05:36:21;15.41;71.79
68177;DHT22;56478;50.982;7.032;2023-07-22T05:39:00;15.46;71.34
68177;DHT22;56478;50.982;7.032;2023-07-22T05:41:44;15.55;71.05
68177;DHT22;56478;50.982;7.032;2023-07-22T05:44:30;15.61;70.91
68177;DHT22;56478;50.982;7.032;2023-07-22T05:47:03;15.79;70.60
68177;DHT22;56478;50.982;7.032;2023-07-22T05:49:39;15.78;70.55
68177;DHT22;56478;50.982;7.032;2023-07-22T05:52:09;16.00;69.81
68177;DHT22;56478;50.982;7.032;2023-07-22T05:54:37;16.13;68.95
68177;DHT22;56478;50.982;7.032;2023-07-22T05:57:45;16.30;68.43
68177;DHT22;56478;50.982;7.032;2023-07-22T06:03:40;16.82;66.43
68177;DHT22;56478;50.982;7.032;2023-07-22T06:06:18;16.86;66.71
68177;DHT22;56478;50.982;7.032;2023-07-22T06:12:59;17.12;65.42
68177;DHT22;56478;50.982;7.032;2023-07-22T06:15:55;16.90;66.33
68177;DHT22;56478;50.982;7.032;2023-07-22T06:25:42;17.64;64.28
68177;DHT22;56478;50.982;7.032;2023-07-22T18:01:37;24.20;38.89
68177;DHT22;56478;50.982;7.032;2023-07-22T18:54:49;23.43;41.39
68177;DHT22;56478;50.982;7.032;2023-07-22T19:05:04;23.37;42.39
68177;DHT22;56478;50.982;7.032;2023-07-22T19:14:52;23.25;43.35
68177;DHT22;56478;50.982;7.032;2023-07-22T19:17:46;23.22;43.57
68177;DHT22;56478;50.982;7.032;2023-07-22T19:27:53;23.00;44.59
68177;DHT22;56478;50.982;7.032;2023-07-22T19:30:55;22.87;44.23
68177;DHT22;56478;50.982;7.032;2023-07-22T19:33:51;22.82;45.00
68177;DHT22;56478;50.982;7.032;2023-07-22T19:37:03;22.76;45.26
68177;DHT22;56478;50.982;7.032;2023-07-22T19:39:46;22.70;45.94
68177;DHT22;56478;50.982;7.032;2023-07-22T19:42:50;22.69;45.39
68177;DHT22;56478;50.982;7.032;2023-07-22T19:49:06;22.60;45.51
68177;DHT22;56478;50.982;7.032;2023-07-22T19:51:57;22.57;46.00
68177;DHT22;56478;50.982;7.032;2023-07-22T19:57:37;22.55;46.67
68177;DHT22;56478;50.982;7.032;2023-07-22T20:00:10;22.52;46.78
68177;DHT22;56478;50.982;7.032;2023-07-22T20:03:11;22.48;46.82
68177;DHT22;56478;50.982;7.032;2023-07-22T20:06:05;22.42;46.70
68177;DHT22;56478;50.982;7.032;2023-07-22T20:08:53;22.38;47.12
68177;DHT22;56478;50.982;7.032;2023-07-22T20:15:11;22.37;45.86
68177;DHT22;56478;50.982;7.032;2023-07-22T20:17:49;22.28;47.00
68177;DHT22;56478;50.982;7.032;2023-07-22T20:20:55;22.20;46.91
68177;DHT22;56478;50.982;7.032;2023-07-22T20:33:24;22.05;48.12
68177;DHT22;56478;50.982;7.032;2023-07-22T20:36:02;22.03;47.97
68177;DHT22;56478;50.982;7.032;2023-07-22T20:38:47;22.01;48.14
68177;DHT22;56478;50.982;7.032;2023-07-22T20:41:35;21.98;48.35
68177;DHT22;56478;50.982;7.032;2023-07-22T20:44:14;21.94;48.18
68177;DHT22;56478;50.982;7.032;2023-07-22T20:46:45;21.89;48.42
68177;DHT22;56478;50.982;7.032;2023-07-22T20:49:16;21.89;49.08
68177;DHT22;56478;50.982;7.032;2023-07-22T20:52:10;21.85;48.98
68177;DHT22;56478;50.982;7.032;2023-07-22T20:55:01;21.89;48.80
68177;DHT22;56478;50.982;7.032;2023-07-22T20:57:26;21.96;48.06
68177;DHT22;56478;50.982;7.032;2023-07-22T21:00:13;21.92;48.18
68177;DHT22;56478;50.982;7.032;2023-07-22T21:06:05;21.83;49.06
68177;DHT22;56478;50.982;7.032;2023-07-22T21:08:52;21.82;50.13
68177;DHT22;56478;50.982;7.032;2023-07-22T21:14:38;21.80;48.86
68177;DHT22;56478;50.982;7.032;2023-07-22T21:17:36;21.79;49.66
68177;DHT22;56478;50.982;7.032;2023-07-22T21:20:14;21.79;49.01
68177;DHT22;56478;50.982;7.032;2023-07-22T21:25:34;21.79;48.62
68177;DHT22;56478;50.982;7.032;2023-07-22T21:31:11;21.83;49.03
68177;DHT22;56478;50.982;7.032;2023-07-22T21:34:02;21.76;49.97
68177;DHT22;56478;50.982;7.032;2023-07-22T21:36:32;21.70;49.61
68177;DHT22;56478;50.982;7.032;2023-07-22T21:39:21;21.66;49.93
68177;DHT22;56478;50.982;7.032;2023-07-22T21:41:59;21.62;50.44
68177;DHT22;56478;50.982;7.032;2023-07-22T21:44:34;21.60;50.18
68177;DHT22;56478;50.982;7.032;2023-07-22T21:47:11;21.55;50.58
68177;DHT22;56478;50.982;7.032;2023-07-22T21:49:49;21.51;50.72
68177;DHT22;56478;50.982;7.032;2023-07-22T21:52:43;21.46;51.11
68177;DHT22;56478;50.982;7.032;2023-07-22T21:55:32;21.45;51.11
68177;DHT22;56478;50.982;7.032;2023-07-22T21:58:28;21.46;50.97
68177;DHT22;56478;50.982;7.032;2023-07-22T22:01:29;21.46;50.96
68177;DHT22;56478;50.982;7.032;2023-07-22T22:04:15;21.38;51.87
68177;DHT22;56478;50.982;7.032;2023-07-22T22:06:43;21.38;51.76
68177;DHT22;56478;50.982;7.032;2023-07-22T22:12:02;21.37;52.41
68177;DHT22;56478;50.982;7.032;2023-07-22T22:14:30;21.32;52.38
68177;DHT22;56478;50.982;7.032;2023-07-22T22:16:58;21.30;52.14
68177;DHT22;56478;50.982;7.032;2023-07-22T22:19:24;21.32;52.50
68177;DHT22;56478;50.982;7.032;2023-07-22T22:22:08;21.31;52.49
68177;DHT22;56478;50.982;7.032;2023-07-22T22:24:46;21.39;51.80
68177;DHT22;56478;50.982;7.032;2023-07-22T22:27:19;21.34;52.39
68177;DHT22;56478;50.982;7.032;2023-07-22T22:29:51;21.32;52.33
68177;DHT22;56478;50.982;7.032;2023-07-22T22:32:26;21.23;52.95
68177;DHT22;56478;50.982;7.032;2023-07-22T22:35:15;21.18;52.75
68177;DHT22;56478;50.982;7.032;2023-07-22T22:37:51;21.25;52.11
68177;DHT22;56478;50.982;7.032;2023-07-22T22:40:21;21.17;52.76
68177;DHT22;56478;50.982;7.032;2023-07-22T22:42:49;21.18;52.52
68177;DHT22;56478;50.982;7.032;2023-07-22T22:45:18;21.24;51.46
68177;DHT22;56478;50.982;7.032;2023-07-22T22:47:43;21.18;52.96
68177;DHT22;56478;50.982;7.032;2023-07-22T22:50:12;21.06;53.71
68177;DHT22;56478;50.982;7.032;2023-07-22T22:52:43;21.07;53.09
68177;DHT22;56478;50.982;7.032;2023-07-22T22:55:11;21.00;54.15
68177;DHT22;56478;50.982;7.032;2023-07-22T22:57:36;21.06;54.39
68177;DHT22;56478;50.982;7.032;2023-07-22T23:00:12;20.96;54.36
68177;DHT22;56478;50.982;7.032;2023-07-22T23:02:49;20.97;53.64
68177;DHT22;56478;50.982;7.032;2023-07-22T23:05:17;20.94;53.90
68177;DHT22;56478;50.982;7.032;2023-07-22T23:07:45;20.89;53.56
68177;DHT22;56478;50.982;7.032;2023-07-22T23:10:11;20.84;54.16
68177;DHT22;56478;50.982;7.032;2023-07-22T23:12:38;20.71;55.83
68177;DHT22;56478;50.982;7.032;2023-07-22T23:15:09;20.59;57.26
68177;DHT22;56478;50.982;7.032;2023-07-22T23:17:38;20.66;57.14
68177;DHT22;56478;50.982;7.032;2023-07-22T23:20:07;20.59;57.92
68177;DHT22;56478;50.982;7.032;2023-07-22T23:22:33;20.52;59.49
68177;DHT22;56478;50.982;7.032;2023-07-22T23:25:08;20.48;59.10
68177;DHT22;56478;50.982;7.032;2023-07-22T23:27:34;20.44;58.47
68177;DHT22;56478;50.982;7.032;2023-07-22T23:30:03;20.41;58.50
68177;DHT22;56478;50.982;7.032;2023-07-22T23:32:35;20.48;56.15
68177;DHT22;56478;50.982;7.032;2023-07-22T23:35:03;20.48;56.26
68177;DHT22;56478;50.982;7.032;2023-07-22T23:37:31;20.48;57.14
68177;DHT22;56478;50.982;7.032;2023-07-22T23:39:57;20.44;56.73
68177;DHT22;56478;50.982;7.032;2023-07-22T23:42:22;20.44;56.86
68177;DHT22;56478;50.982;7.032;2023-07-22T23:44:48;20.52;55.59
68177;DHT22;56478;50.982;7.032;2023-07-22T23:47:14;20.41;57.36
68177;DHT22;56478;50.982;7.032;2023-07-22T23:49:39;20.37;56.45
68177;DHT22;56478;50.982;7.032;2023-07-22T23:52:05;20.32;58.99
68177;DHT22;56478;50.982;7.032;2023-07-22T23:54:30;20.28;58.51
68177;DHT22;56478;50.982;7.032;2023-07-22T23:56:56;20.31;59.51
68177;DHT22;56478;50.982;7.032;2023-07-22T23:59:22;20.25;59.30
